sensor_id;sensor_type;location;lat;lon;timestamp;P1;durP1;ratioP1;P2;durP2;ratioP2
19854;SDS011;10088;47.946;2.532;2023-03-26T00:00:03;4.47;;;1.20;;
19854;SDS011;10088;47.946;2.532;2023-03-26T00:02:29;5.27;;;1.50;;
19854;SDS011;10088;47.946;2.532;2023-03-26T00:04:55;7.80;;;1.57;;
19854;SDS011;10088;47.946;2.532;2023-03-26T00:07:20;7.63;;;1.40;;
19854;SDS011;10088;47.946;2.532;2023-03-26T00:09:46;3.80;;;1.17;;
19854;SDS011;10088;47.946;2.532;2023-03-26T00:12:12;4.30;;;1.13;;
19854;SDS011;10088;47.946;2.532;2023-03-26T00:14:37;10.80;;;1.23;;
19854;SDS011;10088;47.946;2.532;2023-03-26T00:17:04;5.73;;;1.50;;
19854;SDS011;10088;47.946;2.532;2023-03-26T00:19:30;5.23;;;1.43;;
19854;SDS011;10088;47.946;2.532;2023-03-26T00:21:56;6.00;;;1.37;;
19854;SDS011;10088;47.946;2.532;2023-03-26T00:24:21;5.33;;;1.30;;
19854;SDS011;10088;47.946;2.532;2023-03-26T00:26:54;3.70;;;1.07;;
19854;SDS011;10088;47.946;2.532;2023-03-26T00:29:19;3.10;;;1.30;;
19854;SDS011;10088;47.946;2.532;2023-03-26T00:31:46;3.87;;;1.20;;
19854;SDS011;10088;47.946;2.532;2023-03-26T00:34:12;3.63;;;1.10;;
19854;SDS011;10088;47.946;2.532;2023-03-26T00:36:39;6.23;;;1.10;;
19854;SDS011;10088;47.946;2.532;2023-03-26T00:39:06;5.63;;;1.40;;
19854;SDS011;10088;47.946;2.532;2023-03-26T00:41:32;5.37;;;1.50;;
19854;SDS011;10088;47.946;2.532;2023-03-26T00:44:01;3.60;;;1.30;;
19854;SDS011;10088;47.946;2.532;2023-03-26T00:46:27;3.60;;;1.60;;
19854;SDS011;10088;47.946;2.532;2023-03-26T00:48:52;5.27;;;1.30;;
19854;SDS011;10088;47.946;2.532;2023-03-26T00:51:18;3.97;;;1.17;;
19854;SDS011;10088;47.946;2.532;2023-03-26T00:53:45;5.33;;;1.20;;
19854;SDS011;10088;47.946;2.532;2023-03-26T00:56:11;5.73;;;1.70;;
19854;SDS011;10088;47.946;2.532;2023-03-26T00:58:36;6.73;;;1.40;;
19854;SDS011;10088;47.946;2.532;2023-03-26T01:01:03;6.90;;;1.83;;
19854;SDS011;10088;47.946;2.532;2023-03-26T01:03:30;7.17;;;1.80;;
19854;SDS011;10088;47.946;2.532;2023-03-26T01:06:03;4.13;;;1.60;;
19854;SDS011;10088;47.946;2.532;2023-03-26T01:08:42;5.27;;;1.10;;
19854;SDS011;10088;47.946;2.532;2023-03-26T01:11:22;11.83;;;1.80;;
19854;SDS011;10088;47.946;2.532;2023-03-26T01:13:51;3.30;;;1.20;;
19854;SDS011;10088;47.946;2.532;2023-03-26T01:17:04;7.27;;;1.67;;
19854;SDS011;10088;47.946;2.532;2023-03-26T01:19:05;5.93;;;1.53;;
19854;SDS011;10088;47.946;2.532;2023-03-26T01:21:34;10.23;;;1.40;;
19854;SDS011;10088;47.946;2.532;2023-03-26T01:26:30;11.47;;;3.80;;
19854;SDS011;10088;47.946;2.532;2023-03-26T01:28:57;6.30;;;1.27;;
19854;SDS011;10088;47.946;2.532;2023-03-26T01:34:35;3.10;;;1.20;;
19854;SDS011;10088;47.946;2.532;2023-03-26T01:39:26;6.10;;;1.40;;
19854;SDS011;10088;47.946;2.532;2023-03-26T01:41:56;4.83;;;1.27;;
19854;SDS011;10088;47.946;2.532;2023-03-26T01:46:47;4.63;;;1.40;;
19854;SDS011;10088;47.946;2.532;2023-03-26T01:49:14;3.27;;;1.00;;
19854;SDS011;10088;47.946;2.532;2023-03-26T01:51:39;3.07;;;1.50;;
19854;SDS011;10088;47.946;2.532;2023-03-26T01:54:06;5.83;;;1.60;;
19854;SDS011;10088;47.946;2.532;2023-03-26T01:56:44;4.63;;;1.10;;
19854;SDS011;10088;47.946;2.532;2023-03-26T01:59:14;6.37;;;1.30;;
19854;SDS011;10088;47.946;2.532;2023-03-26T02:01:42;5.93;;;1.53;;
19854;SDS011;10088;47.946;2.532;2023-03-26T02:09:02;4.73;;;1.00;;
19854;SDS011;10088;47.946;2.532;2023-03-26T02:11:29;4.37;;;1.40;;
19854;SDS011;10088;47.946;2.532;2023-03-26T02:13:55;5.97;;;1.43;;
19854;SDS011;10088;47.946;2.532;2023-03-26T02:16:20;6.00;;;1.87;;
19854;SDS011;10088;47.946;2.532;2023-03-26T02:18:46;4.80;;;1.27;;
19854;SDS011;10088;47.946;2.532;2023-03-26T02:21:19;2.93;;;1.30;;
19854;SDS011;10088;47.946;2.532;2023-03-26T02:23:46;3.30;;;1.27;;
19854;SDS011;10088;47.946;2.532;2023-03-26T02:26:14;6.63;;;1.73;;
19854;SDS011;10088;47.946;2.532;2023-03-26T02:28:39;4.27;;;1.40;;
19854;SDS011;10088;47.946;2.532;2023-03-26T02:31:05;5.03;;;1.27;;
19854;SDS011;10088;47.946;2.532;2023-03-26T02:33:30;2.97;;;1.10;;
19854;SDS011;10088;47.946;2.532;2023-03-26T02:35:56;5.80;;;2.10;;
19854;SDS011;10088;47.946;2.532;2023-03-26T02:38:29;5.07;;;1.40;;
19854;SDS011;10088;47.946;2.532;2023-03-26T02:40:57;2.77;;;1.60;;
19854;SDS011;10088;47.946;2.532;2023-03-26T02:43:23;3.70;;;1.40;;
19854;SDS011;10088;47.946;2.532;2023-03-26T02:45:48;3.17;;;1.37;;
19854;SDS011;10088;47.946;2.532;2023-03-26T02:48:13;5.73;;;1.57;;
19854;SDS011;10088;47.946;2.532;2023-03-26T02:50:39;3.57;;;1.10;;
19854;SDS011;10088;47.946;2.532;2023-03-26T02:53:04;4.03;;;0.93;;
19854;SDS011;10088;47.946;2.532;2023-03-26T02:55:30;4.37;;;1.40;;
19854;SDS011;10088;47.946;2.532;2023-03-26T02:57:55;8.00;;;1.30;;
19854;SDS011;10088;47.946;2.532;2023-03-26T03:00:21;4.87;;;1.27;;
19854;SDS011;10088;47.946;2.532;2023-03-26T03:02:47;4.00;;;1.30;;
19854;SDS011;10088;47.946;2.532;2023-03-26T03:05:12;5.73;;;1.50;;
19854;SDS011;10088;47.946;2.532;2023-03-26T03:07:38;3.10;;;1.10;;
19854;SDS011;10088;47.946;2.532;2023-03-26T03:10:04;4.83;;;1.97;;
19854;SDS011;10088;47.946;2.532;2023-03-26T03:12:32;2.83;;;0.93;;
19854;SDS011;10088;47.946;2.532;2023-03-26T03:14:58;6.73;;;1.80;;
19854;SDS011;10088;47.946;2.532;2023-03-26T03:17:23;3.07;;;0.87;;
19854;SDS011;10088;47.946;2.532;2023-03-26T03:19:48;2.93;;;0.97;;
19854;SDS011;10088;47.946;2.532;2023-03-26T03:22:13;4.30;;;1.33;;
19854;SDS011;10088;47.946;2.532;2023-03-26T03:24:39;3.03;;;1.00;;
19854;SDS011;10088;47.946;2.532;2023-03-26T03:27:07;2.67;;;0.93;;
19854;SDS011;10088;47.946;2.532;2023-03-26T03:29:32;4.60;;;1.00;;
19854;SDS011;10088;47.946;2.532;2023-03-26T03:31:58;2.17;;;0.90;;
19854;SDS011;10088;47.946;2.532;2023-03-26T03:34:24;2.97;;;0.87;;
19854;SDS011;10088;47.946;2.532;2023-03-26T03:36:49;2.93;;;1.10;;
19854;SDS011;10088;47.946;2.532;2023-03-26T03:39:14;2.77;;;1.17;;
19854;SDS011;10088;47.946;2.532;2023-03-26T03:41:40;2.33;;;0.93;;
19854;SDS011;10088;47.946;2.532;2023-03-26T03:44:05;5.53;;;1.07;;
19854;SDS011;10088;47.946;2.532;2023-03-26T03:46:30;3.13;;;1.20;;
19854;SDS011;10088;47.946;2.532;2023-03-26T03:48:56;7.17;;;1.50;;
19854;SDS011;10088;47.946;2.532;2023-03-26T03:51:21;10.17;;;1.77;;
19854;SDS011;10088;47.946;2.532;2023-03-26T03:53:46;3.67;;;1.40;;
19854;SDS011;10088;47.946;2.532;2023-03-26T03:56:13;6.53;;;1.70;;
19854;SDS011;10088;47.946;2.532;2023-03-26T03:58:41;2.97;;;1.37;;
19854;SDS011;10088;47.946;2.532;2023-03-26T04:01:09;2.63;;;0.93;;
19854;SDS011;10088;47.946;2.532;2023-03-26T04:03:37;3.97;;;0.90;;
19854;SDS011;10088;47.946;2.532;2023-03-26T04:06:03;2.77;;;0.80;;
19854;SDS011;10088;47.946;2.532;2023-03-26T04:08:31;3.57;;;1.37;;
19854;SDS011;10088;47.946;2.532;2023-03-26T04:10:56;3.23;;;0.90;;
19854;SDS011;10088;47.946;2.532;2023-03-26T04:13:22;4.37;;;1.17;;
19854;SDS011;10088;47.946;2.532;2023-03-26T04:15:47;1.67;;;0.87;;
19854;SDS011;10088;47.946;2.532;2023-03-26T04:18:12;5.63;;;0.83;;
19854;SDS011;10088;47.946;2.532;2023-03-26T04:20:38;5.17;;;1.60;;
19854;SDS011;10088;47.946;2.532;2023-03-26T04:23:06;8.47;;;1.27;;
19854;SDS011;10088;47.946;2.532;2023-03-26T04:25:31;8.33;;;1.63;;
19854;SDS011;10088;47.946;2.532;2023-03-26T04:27:58;4.20;;;1.10;;
19854;SDS011;10088;47.946;2.532;2023-03-26T04:30:25;7.20;;;1.37;;
19854;SDS011;10088;47.946;2.532;2023-03-26T04:32:51;3.87;;;1.03;;
19854;SDS011;10088;47.946;2.532;2023-03-26T04:35:17;3.70;;;1.20;;
19854;SDS011;10088;47.946;2.532;2023-03-26T04:37:43;3.47;;;1.20;;
19854;SDS011;10088;47.946;2.532;2023-03-26T04:40:17;7.33;;;1.57;;
19854;SDS011;10088;47.946;2.532;2023-03-26T04:42:44;3.60;;;0.73;;
19854;SDS011;10088;47.946;2.532;2023-03-26T04:45:10;4.50;;;1.40;;
19854;SDS011;10088;47.946;2.532;2023-03-26T04:47:36;6.97;;;1.30;;
19854;SDS011;10088;47.946;2.532;2023-03-26T04:50:03;6.97;;;1.60;;
19854;SDS011;10088;47.946;2.532;2023-03-26T04:52:29;12.13;;;1.87;;
19854;SDS011;10088;47.946;2.532;2023-03-26T04:54:54;4.90;;;1.23;;
19854;SDS011;10088;47.946;2.532;2023-03-26T04:57:22;5.47;;;1.60;;
19854;SDS011;10088;47.946;2.532;2023-03-26T04:59:49;8.40;;;1.80;;
19854;SDS011;10088;47.946;2.532;2023-03-26T05:02:14;8.27;;;1.37;;
19854;SDS011;10088;47.946;2.532;2023-03-26T05:04:39;8.20;;;1.50;;
19854;SDS011;10088;47.946;2.532;2023-03-26T05:07:05;6.67;;;1.60;;
19854;SDS011;10088;47.946;2.532;2023-03-26T05:09:31;8.90;;;1.60;;
19854;SDS011;10088;47.946;2.532;2023-03-26T05:11:57;8.37;;;2.40;;
19854;SDS011;10088;47.946;2.532;2023-03-26T05:14:22;8.13;;;1.60;;
19854;SDS011;10088;47.946;2.532;2023-03-26T05:16:47;3.37;;;1.13;;
19854;SDS011;10088;47.946;2.532;2023-03-26T05:19:14;8.23;;;1.50;;
19854;SDS011;10088;47.946;2.532;2023-03-26T05:21:39;5.97;;;1.40;;
19854;SDS011;10088;47.946;2.532;2023-03-26T05:24:05;9.47;;;1.60;;
19854;SDS011;10088;47.946;2.532;2023-03-26T05:26:31;4.13;;;1.20;;
19854;SDS011;10088;47.946;2.532;2023-03-26T05:28:56;4.83;;;1.20;;
19854;SDS011;10088;47.946;2.532;2023-03-26T05:31:22;7.57;;;2.00;;
19854;SDS011;10088;47.946;2.532;2023-03-26T05:33:47;6.90;;;1.40;;
19854;SDS011;10088;47.946;2.532;2023-03-26T05:36:13;8.30;;;1.80;;
19854;SDS011;10088;47.946;2.532;2023-03-26T05:38:39;5.73;;;1.80;;
19854;SDS011;10088;47.946;2.532;2023-03-26T05:41:05;5.60;;;1.40;;
19854;SDS011;10088;47.946;2.532;2023-03-26T05:43:31;5.97;;;1.43;;
19854;SDS011;10088;47.946;2.532;2023-03-26T05:45:57;11.73;;;2.17;;
19854;SDS011;10088;47.946;2.532;2023-03-26T05:48:23;11.90;;;1.50;;
19854;SDS011;10088;47.946;2.532;2023-03-26T05:50:48;9.17;;;1.30;;
19854;SDS011;10088;47.946;2.532;2023-03-26T05:53:14;7.53;;;1.70;;
19854;SDS011;10088;47.946;2.532;2023-03-26T05:55:42;11.50;;;2.13;;
19854;SDS011;10088;47.946;2.532;2023-03-26T05:58:09;10.07;;;1.80;;
19854;SDS011;10088;47.946;2.532;2023-03-26T06:00:35;8.83;;;1.60;;
19854;SDS011;10088;47.946;2.532;2023-03-26T06:03:03;10.70;;;2.10;;
19854;SDS011;10088;47.946;2.532;2023-03-26T06:05:30;6.67;;;1.27;;
19854;SDS011;10088;47.946;2.532;2023-03-26T06:07:56;12.30;;;2.17;;
19854;SDS011;10088;47.946;2.532;2023-03-26T06:10:21;11.70;;;2.43;;
19854;SDS011;10088;47.946;2.532;2023-03-26T06:12:47;10.63;;;2.03;;
19854;SDS011;10088;47.946;2.532;2023-03-26T06:15:13;9.53;;;1.60;;
19854;SDS011;10088;47.946;2.532;2023-03-26T06:17:39;9.27;;;1.90;;
19854;SDS011;10088;47.946;2.532;2023-03-26T06:20:04;6.77;;;2.30;;
19854;SDS011;10088;47.946;2.532;2023-03-26T06:22:31;7.90;;;2.37;;
19854;SDS011;10088;47.946;2.532;2023-03-26T06:24:56;9.10;;;2.53;;
19854;SDS011;10088;47.946;2.532;2023-03-26T06:27:22;8.60;;;2.17;;
19854;SDS011;10088;47.946;2.532;2023-03-26T06:29:47;12.47;;;2.70;;
19854;SDS011;10088;47.946;2.532;2023-03-26T06:32:13;13.57;;;2.23;;
19854;SDS011;10088;47.946;2.532;2023-03-26T06:34:38;9.13;;;2.13;;
19854;SDS011;10088;47.946;2.532;2023-03-26T06:37:03;11.73;;;2.33;;
19854;SDS011;10088;47.946;2.532;2023-03-26T06:39:29;12.93;;;2.87;;
19854;SDS011;10088;47.946;2.532;2023-03-26T06:41:54;9.67;;;2.07;;
19854;SDS011;10088;47.946;2.532;2023-03-26T06:44:20;8.23;;;2.07;;
19854;SDS011;10088;47.946;2.532;2023-03-26T06:46:45;15.60;;;2.97;;
19854;SDS011;10088;47.946;2.532;2023-03-26T06:49:10;11.37;;;2.80;;
19854;SDS011;10088;47.946;2.532;2023-03-26T06:51:36;8.93;;;2.30;;
19854;SDS011;10088;47.946;2.532;2023-03-26T06:54:04;11.30;;;2.70;;
19854;SDS011;10088;47.946;2.532;2023-03-26T06:56:29;14.47;;;3.47;;
19854;SDS011;10088;47.946;2.532;2023-03-26T06:58:55;8.67;;;2.33;;
19854;SDS011;10088;47.946;2.532;2023-03-26T07:01:20;19.67;;;5.53;;
19854;SDS011;10088;47.946;2.532;2023-03-26T07:03:46;10.63;;;2.63;;
19854;SDS011;10088;47.946;2.532;2023-03-26T07:06:11;11.93;;;2.50;;
19854;SDS011;10088;47.946;2.532;2023-03-26T07:08:36;18.33;;;5.17;;
19854;SDS011;10088;47.946;2.532;2023-03-26T07:11:01;14.13;;;2.63;;
19854;SDS011;10088;47.946;2.532;2023-03-26T07:13:27;9.87;;;2.00;;
19854;SDS011;10088;47.946;2.532;2023-03-26T07:15:52;11.63;;;2.53;;
19854;SDS011;10088;47.946;2.532;2023-03-26T07:18:17;15.13;;;4.83;;
19854;SDS011;10088;47.946;2.532;2023-03-26T07:20:43;16.30;;;5.43;;
19854;SDS011;10088;47.946;2.532;2023-03-26T07:23:09;15.60;;;3.67;;
19854;SDS011;10088;47.946;2.532;2023-03-26T07:25:34;13.67;;;2.63;;
19854;SDS011;10088;47.946;2.532;2023-03-26T07:33:28;8.83;;;1.83;;
19854;SDS011;10088;47.946;2.532;2023-03-26T07:41:05;7.17;;;1.40;;
19854;SDS011;10088;47.946;2.532;2023-03-26T07:43:45;6.20;;;1.00;;
19854;SDS011;10088;47.946;2.532;2023-03-26T07:46:13;8.77;;;1.50;;
19854;SDS011;10088;47.946;2.532;2023-03-26T07:48:43;7.93;;;1.77;;
19854;SDS011;10088;47.946;2.532;2023-03-26T07:51:09;11.53;;;1.80;;
19854;SDS011;10088;47.946;2.532;2023-03-26T07:53:34;10.27;;;1.90;;
19854;SDS011;10088;47.946;2.532;2023-03-26T07:56:16;7.40;;;1.83;;
19854;SDS011;10088;47.946;2.532;2023-03-26T08:06:38;10.53;;;2.80;;
19854;SDS011;10088;47.946;2.532;2023-03-26T08:11:42;8.10;;;2.20;;
19854;SDS011;10088;47.946;2.532;2023-03-26T08:14:16;12.60;;;2.60;;
19854;SDS011;10088;47.946;2.532;2023-03-26T08:22:33;6.13;;;2.10;;
19854;SDS011;10088;47.946;2.532;2023-03-26T08:27:27;12.80;;;2.83;;
19854;SDS011;10088;47.946;2.532;2023-03-26T08:30:08;6.93;;;2.03;;
19854;SDS011;10088;47.946;2.532;2023-03-26T08:32:34;8.73;;;2.23;;
19854;SDS011;10088;47.946;2.532;2023-03-26T08:37:40;7.93;;;2.47;;
19854;SDS011;10088;47.946;2.532;2023-03-26T08:40:15;11.97;;;3.07;;
19854;SDS011;10088;47.946;2.532;2023-03-26T08:45:29;11.40;;;2.60;;
19854;SDS011;10088;47.946;2.532;2023-03-26T08:48:23;4.43;;;1.57;;
19854;SDS011;10088;47.946;2.532;2023-03-26T08:54:09;8.83;;;1.87;;
19854;SDS011;10088;47.946;2.532;2023-03-26T08:57:01;8.50;;;1.90;;
19854;SDS011;10088;47.946;2.532;2023-03-26T09:18:30;2.43;;;0.53;;
19854;SDS011;10088;47.946;2.532;2023-03-26T09:21:13;0.90;;;0.30;;
19854;SDS011;10088;47.946;2.532;2023-03-26T09:34:45;0.37;;;0.30;;
19854;SDS011;10088;47.946;2.532;2023-03-26T09:40:34;1.53;;;0.50;;
19854;SDS011;10088;47.946;2.532;2023-03-26T09:45:59;2.40;;;0.40;;
19854;SDS011;10088;47.946;2.532;2023-03-26T09:48:42;0.87;;;0.50;;
19854;SDS011;10088;47.946;2.532;2023-03-26T09:56:51;0.97;;;0.40;;
19854;SDS011;10088;47.946;2.532;2023-03-26T10:02:03;0.57;;;0.37;;
19854;SDS011;10088;47.946;2.532;2023-03-26T10:04:55;1.23;;;0.63;;
19854;SDS011;10088;47.946;2.532;2023-03-26T10:07:31;3.00;;;0.90;;
19854;SDS011;10088;47.946;2.532;2023-03-26T10:10:42;3.63;;;0.80;;
19854;SDS011;10088;47.946;2.532;2023-03-26T10:13:13;1.93;;;0.67;;
19854;SDS011;10088;47.946;2.532;2023-03-26T10:22:08;2.63;;;0.80;;
19854;SDS011;10088;47.946;2.532;2023-03-26T10:29:59;3.67;;;0.90;;
19854;SDS011;10088;47.946;2.532;2023-03-26T10:35:21;2.33;;;0.70;;
19854;SDS011;10088;47.946;2.532;2023-03-26T10:51:43;4.33;;;1.20;;
19854;SDS011;10088;47.946;2.532;2023-03-26T10:59:53;4.27;;;0.80;;
19854;SDS011;10088;47.946;2.532;2023-03-26T11:02:28;5.90;;;1.20;;
19854;SDS011;10088;47.946;2.532;2023-03-26T11:08:05;5.90;;;1.10;;
19854;SDS011;10088;47.946;2.532;2023-03-26T11:21:36;3.57;;;1.53;;
19854;SDS011;10088;47.946;2.532;2023-03-26T11:27:04;2.43;;;0.93;;
19854;SDS011;10088;47.946;2.532;2023-03-26T11:32:21;3.53;;;1.30;;
19854;SDS011;10088;47.946;2.532;2023-03-26T11:34:59;2.90;;;0.80;;
19854;SDS011;10088;47.946;2.532;2023-03-26T11:37:50;2.87;;;1.00;;
19854;SDS011;10088;47.946;2.532;2023-03-26T11:40:42;4.20;;;1.40;;
19854;SDS011;10088;47.946;2.532;2023-03-26T11:43:15;7.00;;;1.47;;
19854;SDS011;10088;47.946;2.532;2023-03-26T11:45:51;4.33;;;1.10;;
19854;SDS011;10088;47.946;2.532;2023-03-26T11:51:35;4.70;;;1.13;;
19854;SDS011;10088;47.946;2.532;2023-03-26T11:54:06;3.13;;;1.20;;
19854;SDS011;10088;47.946;2.532;2023-03-26T11:59:13;3.80;;;1.07;;
19854;SDS011;10088;47.946;2.532;2023-03-26T12:01:43;5.23;;;1.50;;
19854;SDS011;10088;47.946;2.532;2023-03-26T12:07:19;6.07;;;1.80;;
19854;SDS011;10088;47.946;2.532;2023-03-26T12:12:40;4.57;;;1.20;;
19854;SDS011;10088;47.946;2.532;2023-03-26T12:15:12;2.93;;;0.70;;
19854;SDS011;10088;47.946;2.532;2023-03-26T12:17:46;4.43;;;0.87;;
19854;SDS011;10088;47.946;2.532;2023-03-26T12:22:58;5.07;;;0.80;;
19854;SDS011;10088;47.946;2.532;2023-03-26T12:30:32;2.70;;;1.00;;
19854;SDS011;10088;47.946;2.532;2023-03-26T12:33:25;9.03;;;1.37;;
19854;SDS011;10088;47.946;2.532;2023-03-26T12:36:15;3.60;;;1.23;;
19854;SDS011;10088;47.946;2.532;2023-03-26T12:38:48;3.37;;;0.60;;
19854;SDS011;10088;47.946;2.532;2023-03-26T12:41:16;1.07;;;0.60;;
19854;SDS011;10088;47.946;2.532;2023-03-26T12:43:49;1.33;;;0.43;;
19854;SDS011;10088;47.946;2.532;2023-03-26T12:46:33;1.43;;;0.43;;
19854;SDS011;10088;47.946;2.532;2023-03-26T12:49:06;5.87;;;4.27;;
19854;SDS011;10088;47.946;2.532;2023-03-26T12:51:54;2.73;;;0.73;;
19854;SDS011;10088;47.946;2.532;2023-03-26T13:05:16;1.33;;;0.67;;
19854;SDS011;10088;47.946;2.532;2023-03-26T13:13:12;4.27;;;1.20;;
19854;SDS011;10088;47.946;2.532;2023-03-26T13:15:49;5.50;;;0.93;;
19854;SDS011;10088;47.946;2.532;2023-03-26T13:23:34;3.37;;;1.17;;
19854;SDS011;10088;47.946;2.532;2023-03-26T13:28:47;4.83;;;2.33;;
19854;SDS011;10088;47.946;2.532;2023-03-26T13:31:26;3.57;;;1.37;;
19854;SDS011;10088;47.946;2.532;2023-03-26T13:34:09;4.23;;;1.23;;
19854;SDS011;10088;47.946;2.532;2023-03-26T13:39:36;3.87;;;0.90;;
19854;SDS011;10088;47.946;2.532;2023-03-26T13:47:25;4.20;;;1.07;;
19854;SDS011;10088;47.946;2.532;2023-03-26T13:50:48;4.80;;;1.30;;
19854;SDS011;10088;47.946;2.532;2023-03-26T13:52:49;4.47;;;1.43;;
19854;SDS011;10088;47.946;2.532;2023-03-26T13:55:41;5.77;;;1.33;;
19854;SDS011;10088;47.946;2.532;2023-03-26T14:03:40;3.50;;;0.90;;
19854;SDS011;10088;47.946;2.532;2023-03-26T14:08:52;7.37;;;1.60;;
19854;SDS011;10088;47.946;2.532;2023-03-26T14:14:05;3.13;;;0.93;;
19854;SDS011;10088;47.946;2.532;2023-03-26T14:16:50;1.83;;;0.63;;
19854;SDS011;10088;47.946;2.532;2023-03-26T14:33:11;2.30;;;0.80;;
19854;SDS011;10088;47.946;2.532;2023-03-26T14:35:45;2.57;;;0.90;;
19854;SDS011;10088;47.946;2.532;2023-03-26T14:48:29;3.10;;;0.73;;
19854;SDS011;10088;47.946;2.532;2023-03-26T14:53:42;5.27;;;0.90;;
19854;SDS011;10088;47.946;2.532;2023-03-26T15:02:16;4.20;;;0.90;;
19854;SDS011;10088;47.946;2.532;2023-03-26T15:38:55;1.43;;;0.50;;
19854;SDS011;10088;47.946;2.532;2023-03-26T15:49:40;0.87;;;0.40;;
19854;SDS011;10088;47.946;2.532;2023-03-26T16:11:03;1.80;;;0.60;;
19854;SDS011;10088;47.946;2.532;2023-03-26T16:13:39;1.27;;;0.30;;
19854;SDS011;10088;47.946;2.532;2023-03-26T16:16:18;1.73;;;0.57;;
19854;SDS011;10088;47.946;2.532;2023-03-26T16:18:56;1.83;;;0.50;;
19854;SDS011;10088;47.946;2.532;2023-03-26T16:29:22;1.80;;;0.80;;
19854;SDS011;10088;47.946;2.532;2023-03-26T16:34:48;1.03;;;0.53;;
19854;SDS011;10088;47.946;2.532;2023-03-26T16:37:34;1.07;;;0.50;;
19854;SDS011;10088;47.946;2.532;2023-03-26T16:50:43;1.80;;;0.50;;
19854;SDS011;10088;47.946;2.532;2023-03-26T16:55:58;3.50;;;0.90;;
19854;SDS011;10088;47.946;2.532;2023-03-26T17:06:29;1.37;;;1.07;;
19854;SDS011;10088;47.946;2.532;2023-03-26T17:09:12;2.33;;;0.60;;
19854;SDS011;10088;47.946;2.532;2023-03-26T17:17:20;1.37;;;0.60;;
19854;SDS011;10088;47.946;2.532;2023-03-26T17:20:01;1.03;;;0.53;;
19854;SDS011;10088;47.946;2.532;2023-03-26T17:22:45;1.77;;;0.90;;
19854;SDS011;10088;47.946;2.532;2023-03-26T17:25:20;1.07;;;0.60;;
19854;SDS011;10088;47.946;2.532;2023-03-26T17:35:47;1.77;;;0.60;;
19854;SDS011;10088;47.946;2.532;2023-03-26T17:40:53;2.23;;;0.57;;
19854;SDS011;10088;47.946;2.532;2023-03-26T17:46:04;2.03;;;0.50;;
19854;SDS011;10088;47.946;2.532;2023-03-26T17:48:44;1.50;;;0.60;;
19854;SDS011;10088;47.946;2.532;2023-03-26T17:51:29;1.27;;;0.60;;
19854;SDS011;10088;47.946;2.532;2023-03-26T17:54:07;1.70;;;0.60;;
19854;SDS011;10088;47.946;2.532;2023-03-26T17:56:40;3.33;;;0.70;;
19854;SDS011;10088;47.946;2.532;2023-03-26T17:59:16;2.00;;;0.70;;
19854;SDS011;10088;47.946;2.532;2023-03-26T18:01:50;0.93;;;0.40;;
19854;SDS011;10088;47.946;2.532;2023-03-26T18:04:30;1.33;;;0.50;;
19854;SDS011;10088;47.946;2.532;2023-03-26T18:07:19;1.73;;;0.60;;
19854;SDS011;10088;47.946;2.532;2023-03-26T18:10:12;1.30;;;0.47;;
19854;SDS011;10088;47.946;2.532;2023-03-26T18:20:46;1.30;;;0.60;;
19854;SDS011;10088;47.946;2.532;2023-03-26T18:23:32;2.37;;;0.93;;
19854;SDS011;10088;47.946;2.532;2023-03-26T18:28:51;1.17;;;0.80;;
19854;SDS011;10088;47.946;2.532;2023-03-26T18:31:29;1.03;;;0.50;;
19854;SDS011;10088;47.946;2.532;2023-03-26T18:34:01;2.40;;;0.80;;
19854;SDS011;10088;47.946;2.532;2023-03-26T18:36:36;1.23;;;0.50;;
19854;SDS011;10088;47.946;2.532;2023-03-26T18:39:09;1.53;;;0.83;;
19854;SDS011;10088;47.946;2.532;2023-03-26T18:41:40;2.03;;;0.60;;
19854;SDS011;10088;47.946;2.532;2023-03-26T18:44:12;2.90;;;1.20;;
19854;SDS011;10088;47.946;2.532;2023-03-26T18:46:46;3.03;;;0.80;;
19854;SDS011;10088;47.946;2.532;2023-03-26T18:49:18;3.13;;;0.97;;
19854;SDS011;10088;47.946;2.532;2023-03-26T18:51:50;2.30;;;0.77;;
19854;SDS011;10088;47.946;2.532;2023-03-26T18:54:21;3.13;;;0.90;;
19854;SDS011;10088;47.946;2.532;2023-03-26T18:56:50;3.13;;;0.90;;
19854;SDS011;10088;47.946;2.532;2023-03-26T19:01:58;3.03;;;0.90;;
19854;SDS011;10088;47.946;2.532;2023-03-26T19:04:37;3.50;;;0.80;;
19854;SDS011;10088;47.946;2.532;2023-03-26T19:07:34;1.93;;;0.60;;
19854;SDS011;10088;47.946;2.532;2023-03-26T19:10:27;2.00;;;0.83;;
19854;SDS011;10088;47.946;2.532;2023-03-26T19:13:03;1.30;;;0.70;;
19854;SDS011;10088;47.946;2.532;2023-03-26T19:15:32;2.73;;;0.73;;
19854;SDS011;10088;47.946;2.532;2023-03-26T19:18:02;2.63;;;0.70;;
19854;SDS011;10088;47.946;2.532;2023-03-26T19:20:59;1.20;;;0.77;;
19854;SDS011;10088;47.946;2.532;2023-03-26T19:23:30;1.40;;;0.80;;
19854;SDS011;10088;47.946;2.532;2023-03-26T19:26:08;2.50;;;0.80;;
19854;SDS011;10088;47.946;2.532;2023-03-26T19:28:39;4.70;;;1.23;;
19854;SDS011;10088;47.946;2.532;2023-03-26T19:31:26;2.00;;;0.73;;
19854;SDS011;10088;47.946;2.532;2023-03-26T19:36:32;3.03;;;1.00;;
19854;SDS011;10088;47.946;2.532;2023-03-26T19:39:10;2.23;;;1.10;;
19854;SDS011;10088;47.946;2.532;2023-03-26T19:41:53;1.07;;;0.80;;
19854;SDS011;10088;47.946;2.532;2023-03-26T19:44:26;3.33;;;1.13;;
19854;SDS011;10088;47.946;2.532;2023-03-26T19:46:51;4.90;;;1.30;;
19854;SDS011;10088;47.946;2.532;2023-03-26T19:49:32;1.53;;;0.80;;
19854;SDS011;10088;47.946;2.532;2023-03-26T19:52:08;1.80;;;0.83;;
19854;SDS011;10088;47.946;2.532;2023-03-26T19:54:43;3.37;;;1.07;;
19854;SDS011;10088;47.946;2.532;2023-03-26T19:57:08;2.00;;;0.77;;
19854;SDS011;10088;47.946;2.532;2023-03-26T19:59:34;0.90;;;0.70;;
19854;SDS011;10088;47.946;2.532;2023-03-26T20:01:59;1.40;;;0.70;;
19854;SDS011;10088;47.946;2.532;2023-03-26T20:04:24;2.00;;;0.87;;
19854;SDS011;10088;47.946;2.532;2023-03-26T20:06:50;1.97;;;1.30;;
19854;SDS011;10088;47.946;2.532;2023-03-26T20:09:16;5.00;;;1.13;;
19854;SDS011;10088;47.946;2.532;2023-03-26T20:11:43;4.93;;;1.13;;
19854;SDS011;10088;47.946;2.532;2023-03-26T20:16:36;2.70;;;0.80;;
19854;SDS011;10088;47.946;2.532;2023-03-26T20:19:02;2.33;;;0.67;;
19854;SDS011;10088;47.946;2.532;2023-03-26T20:21:28;1.93;;;0.90;;
19854;SDS011;10088;47.946;2.532;2023-03-26T20:23:54;3.50;;;1.00;;
19854;SDS011;10088;47.946;2.532;2023-03-26T20:26:20;2.53;;;0.90;;
19854;SDS011;10088;47.946;2.532;2023-03-26T20:28:45;3.10;;;0.90;;
19854;SDS011;10088;47.946;2.532;2023-03-26T20:31:16;3.90;;;1.20;;
19854;SDS011;10088;47.946;2.532;2023-03-26T20:33:43;1.50;;;0.77;;
19854;SDS011;10088;47.946;2.532;2023-03-26T20:36:10;1.80;;;0.50;;
19854;SDS011;10088;47.946;2.532;2023-03-26T20:38:35;1.77;;;0.60;;
19854;SDS011;10088;47.946;2.532;2023-03-26T20:41:01;3.23;;;1.47;;
19854;SDS011;10088;47.946;2.532;2023-03-26T20:43:26;4.77;;;0.90;;
19854;SDS011;10088;47.946;2.532;2023-03-26T20:45:54;2.33;;;0.90;;
19854;SDS011;10088;47.946;2.532;2023-03-26T20:48:21;2.70;;;1.00;;
19854;SDS011;10088;47.946;2.532;2023-03-26T20:50:46;1.00;;;0.70;;
19854;SDS011;10088;47.946;2.532;2023-03-26T20:53:12;1.87;;;0.97;;
19854;SDS011;10088;47.946;2.532;2023-03-26T20:55:38;1.93;;;0.87;;
19854;SDS011;10088;47.946;2.532;2023-03-26T20:58:05;3.00;;;0.87;;
19854;SDS011;10088;47.946;2.532;2023-03-26T21:00:30;6.10;;;1.23;;
19854;SDS011;10088;47.946;2.532;2023-03-26T21:02:56;3.30;;;1.10;;
19854;SDS011;10088;47.946;2.532;2023-03-26T21:05:25;2.40;;;0.97;;
19854;SDS011;10088;47.946;2.532;2023-03-26T21:07:51;2.40;;;1.17;;
19854;SDS011;10088;47.946;2.532;2023-03-26T21:10:17;3.37;;;1.00;;
19854;SDS011;10088;47.946;2.532;2023-03-26T21:12:56;3.07;;;1.37;;
19854;SDS011;10088;47.946;2.532;2023-03-26T21:15:22;1.60;;;1.10;;
19854;SDS011;10088;47.946;2.532;2023-03-26T21:17:48;1.97;;;1.00;;
19854;SDS011;10088;47.946;2.532;2023-03-26T21:20:14;2.37;;;0.97;;